createdAt,value
2017-06-13T00:01:23.650Z,65.3
2017-06-13T00:02:22.758Z,65.3
2017-06-13T00:03:22.056Z,65.6
2017-06-13T00:04:21.161Z,65.6
2017-06-13T00:05:20.771Z,65.6
2017-06-13T00:06:20.027Z,65.7
2017-06-13T00:07:19.251Z,65.8
2017-06-13T00:08:18.360Z,65.6
2017-06-13T00:09:17.582Z,65.7
2017-06-13T00:10:17.189Z,65.7
2017-06-13T00:11:17.003Z,65.7
2017-06-13T00:12:15.369Z,65.5
2017-06-13T00:13:14.587Z,65.5
2017-06-13T00:14:14.313Z,65.7
2017-06-13T00:16:12.928Z,65.6
2017-06-13T00:17:12.153Z,65.6
2017-06-13T00:18:11.378Z,65.8
2017-06-13T00:19:10.601Z,65.7
2017-06-13T00:20:09.828Z,65.7
2017-06-13T00:21:08.818Z,65.6
2017-06-13T00:22:08.307Z,65.8
2017-06-13T00:23:07.903Z,65.7
2017-06-13T00:24:07.130Z,65.6
2017-06-13T00:25:06.234Z,65.5
2017-06-13T00:26:05.462Z,65.6
2017-06-13T00:27:04.758Z,65.5
2017-06-13T00:28:03.984Z,65.5
2017-06-13T00:29:03.591Z,65.6
2017-06-13T00:30:02.701Z,65.7
2017-06-13T00:31:01.808Z,65.7
2017-06-13T00:32:01.030Z,65.8
2017-06-13T00:33:00.521Z,65.8
2017-06-13T00:33:59.669Z,65.9
2017-06-13T00:34:58.783Z,65.9
2017-06-13T00:36:57.590Z,66.1
2017-06-13T00:37:56.886Z,66.1
2017-06-13T00:38:56.374Z,66.1
2017-06-13T00:39:55.671Z,66.1
2017-06-13T00:40:54.895Z,66.1
2017-06-13T00:41:54.117Z,66.2
2017-06-13T00:42:53.419Z,66.2
2017-06-13T00:43:52.649Z,66.2
2017-06-13T00:44:51.878Z,66.4
2017-06-13T00:45:50.862Z,66.6
2017-06-13T00:47:49.868Z,66.4
2017-06-13T00:48:48.977Z,66.2
2017-06-13T00:50:47.661Z,66.3
2017-06-13T00:51:46.884Z,66.2
2017-06-13T00:52:46.186Z,66.4
2017-06-13T00:53:45.490Z,66.4
2017-06-13T00:54:44.724Z,66.4
2017-06-13T00:55:43.859Z,66.6
2017-06-13T00:56:43.080Z,66.6
2017-06-13T00:57:42.190Z,66.5
2017-06-13T00:58:41.796Z,66.7
2017-06-13T00:59:41.032Z,66.6
2017-06-13T01:00:40.141Z,66.7
2017-06-13T01:01:39.367Z,66.8
2017-06-13T01:02:38.972Z,66.8
2017-06-13T01:03:38.198Z,67.3
2017-06-13T01:04:37.427Z,67.4
2017-06-13T01:05:36.541Z,67.4
2017-06-13T01:06:35.843Z,67.3
2017-06-13T01:07:35.071Z,67.3
2017-06-13T01:08:34.687Z,67.4
2017-06-13T01:09:05.225Z,67.4
2017-06-13T01:09:35.766Z,67.3
2017-06-13T01:10:32.935Z,67.2
2017-06-13T01:11:32.156Z,67.5
2017-06-13T01:12:31.768Z,67.3
2017-06-13T01:13:31.066Z,67.5
2017-06-13T01:14:30.327Z,67.6
2017-06-13T01:15:29.553Z,67.8
2017-06-13T01:16:28.785Z,67.8
2017-06-13T01:17:28.010Z,67.8
2017-06-13T01:18:27.232Z,67.9
2017-06-13T01:19:26.456Z,67.9
2017-06-13T01:20:25.677Z,68
2017-06-13T01:21:24.902Z,68.1
2017-06-13T01:22:24.201Z,68
2017-06-13T01:23:23.350Z,68.2
2017-06-13T01:24:22.960Z,68.2
2017-06-13T01:25:22.191Z,68.3
2017-06-13T01:26:21.411Z,68.4
2017-06-13T01:27:20.714Z,68.6
2017-06-13T01:28:19.938Z,68.7
2017-06-13T01:29:19.044Z,69
2017-06-13T01:30:18.536Z,68.8
2017-06-13T01:31:17.756Z,68.9
2017-06-13T01:32:16.862Z,69.2
2017-06-13T01:33:16.470Z,69.6
2017-06-13T01:34:15.616Z,69.8
2017-06-13T01:35:14.732Z,69.9
2017-06-13T01:36:13.954Z,70.1
2017-06-13T01:37:13.754Z,69.9
2017-06-13T01:38:12.482Z,70.1
2017-06-13T01:39:11.717Z,70.1
2017-06-13T01:40:11.031Z,70.4
2017-06-13T01:41:10.253Z,70.2
2017-06-13T01:42:09.486Z,70.2
2017-06-13T01:43:09.095Z,70.6
2017-06-13T01:44:08.206Z,70.6
2017-06-13T01:45:07.429Z,70.5
2017-06-13T01:46:06.656Z,70.5
2017-06-13T01:47:05.880Z,70.5
2017-06-13T01:48:05.100Z,70.6
2017-06-13T01:49:04.679Z,70.7
2017-06-13T01:50:03.795Z,70.7
2017-06-13T01:51:03.020Z,70.7
2017-06-13T01:52:02.125Z,70.9
2017-06-13T01:53:01.491Z,71
2017-06-13T01:54:00.778Z,70.9
2017-06-13T01:55:00.004Z,71.1
2017-06-13T01:55:59.231Z,71.2
2017-06-13T01:57:58.122Z,71.7
2017-06-13T01:58:57.349Z,71.6
2017-06-13T01:59:56.578Z,71.6
2017-06-13T02:00:55.796Z,71.7
2017-06-13T02:01:55.061Z,72.2
2017-06-13T02:02:54.285Z,72.5
2017-06-13T02:03:53.513Z,72.6
2017-06-13T02:04:52.738Z,72.6
2017-06-13T02:05:51.846Z,72.7
2017-06-13T02:06:51.460Z,72.8
2017-06-13T02:07:50.678Z,73.1
2017-06-13T02:08:49.971Z,73.3
2017-06-13T02:09:49.074Z,73.4
2017-06-13T02:10:48.180Z,73.8
2017-06-13T02:11:47.413Z,73.6
2017-06-13T02:12:46.706Z,74.2
2017-06-13T02:13:45.936Z,74.5
2017-06-13T02:14:45.661Z,74.6
2017-06-13T02:15:44.882Z,74.6
2017-06-13T02:16:44.108Z,74.6
2017-06-13T02:17:43.346Z,74.7
2017-06-13T02:18:42.579Z,75.2
2017-06-13T02:19:41.682Z,75.6
2017-06-13T02:20:40.861Z,75.5
2017-06-13T02:21:39.971Z,75.5
2017-06-13T02:22:39.580Z,75.6
2017-06-13T02:23:38.688Z,75.5
2017-06-13T02:24:37.913Z,75.9
2017-06-13T02:25:37.137Z,75.6
2017-06-13T02:26:36.743Z,75.9
2017-06-13T02:27:35.616Z,76
2017-06-13T02:28:35.108Z,76
2017-06-13T02:29:34.333Z,76
2017-06-13T02:30:33.446Z,75.7
2017-06-13T02:31:32.667Z,76.2
2017-06-13T02:32:31.927Z,76
2017-06-13T02:33:31.231Z,75.9
2017-06-13T02:34:30.540Z,76.1
2017-06-13T02:35:29.666Z,76.2
2017-06-13T02:36:28.887Z,75.8
2017-06-13T02:38:27.270Z,75.9
2017-06-13T02:39:26.994Z,75.9
2017-06-13T02:40:26.113Z,75.9
2017-06-13T02:41:25.174Z,76
2017-06-13T02:42:24.173Z,75.9
2017-06-13T02:43:23.913Z,75.9
2017-06-13T02:44:23.023Z,76
2017-06-13T02:45:22.259Z,76.4
2017-06-13T02:46:21.487Z,76.2
2017-06-13T02:47:20.599Z,76.6
2017-06-13T02:48:19.830Z,76.5
2017-06-13T02:49:19.454Z,76.7
2017-06-13T02:50:18.574Z,76.6
2017-06-13T02:51:17.682Z,76.5
2017-06-13T02:52:16.911Z,77.1
2017-06-13T02:53:16.031Z,76.9
2017-06-13T02:54:15.650Z,76.6
2017-06-13T02:55:14.776Z,76.7
2017-06-13T02:56:14.080Z,76.7
2017-06-13T02:57:13.196Z,76.8
2017-06-13T02:58:13.161Z,77
2017-06-13T02:59:11.894Z,76.8
2017-06-13T03:00:11.138Z,76.9
2017-06-13T03:01:10.366Z,76.8
2017-06-13T03:02:09.572Z,76.8
2017-06-13T03:03:08.806Z,76.9
2017-06-13T03:04:07.922Z,77
2017-06-13T03:05:07.153Z,77.1
2017-06-13T03:06:06.389Z,77
2017-06-13T03:07:05.613Z,77.2
2017-06-13T03:08:04.728Z,77
2017-06-13T03:09:04.110Z,77
2017-06-13T03:10:03.227Z,76.7
2017-06-13T03:11:02.606Z,76.5
2017-06-13T03:12:01.843Z,76.5
2017-06-13T03:13:01.083Z,76.2
2017-06-13T03:14:00.318Z,76.4
2017-06-13T03:14:59.550Z,76.5
2017-06-13T03:15:29.771Z,76.5
2017-06-13T03:16:58.200Z,76.6
2017-06-13T03:17:57.199Z,76.3
2017-06-13T03:18:56.309Z,76.5
2017-06-13T03:19:55.807Z,76.3
2017-06-13T03:20:54.961Z,76.3
2017-06-13T03:21:54.327Z,76.4
2017-06-13T03:22:53.643Z,76.4
2017-06-13T03:23:52.760Z,76.1
2017-06-13T03:24:51.993Z,76.2
2017-06-13T03:25:51.301Z,76.2
2017-06-13T03:27:49.922Z,76.1
2017-06-13T03:28:49.154Z,76.2
2017-06-13T03:29:47.959Z,76.1
2017-06-13T03:30:47.214Z,76.2
2017-06-13T03:31:46.458Z,75.9
2017-06-13T03:32:45.729Z,75.7
2017-06-13T03:33:45.531Z,75.8
2017-06-13T03:34:44.258Z,76
2017-06-13T03:35:43.491Z,76.3
2017-06-13T03:36:42.734Z,75.9
2017-06-13T03:37:41.971Z,75.9
2017-06-13T03:38:41.274Z,75.9
2017-06-13T03:39:40.506Z,75.7
2017-06-13T03:40:39.741Z,75.8
2017-06-13T03:41:38.972Z,75.7
2017-06-13T03:42:38.216Z,75.7
2017-06-13T03:43:37.448Z,75.8
2017-06-13T03:44:36.565Z,75.8
2017-06-13T03:45:36.304Z,75.6
2017-06-13T03:46:35.066Z,75.7
2017-06-13T03:47:34.306Z,75.8
2017-06-13T03:48:33.424Z,75.6
2017-06-13T03:49:32.918Z,75.7
2017-06-13T03:50:32.033Z,75.6
2017-06-13T03:52:30.532Z,75.4
2017-06-13T03:53:29.765Z,75.5
2017-06-13T03:54:28.998Z,75.5
2017-06-13T03:55:28.618Z,75.6
2017-06-13T03:56:27.856Z,75.3
2017-06-13T03:57:27.163Z,75.3
2017-06-13T03:58:26.284Z,75.3
2017-06-13T03:59:25.515Z,75.6
2017-06-13T04:00:24.625Z,75.6
2017-06-13T04:01:23.822Z,75.6
2017-06-13T04:02:23.061Z,75.2
2017-06-13T04:03:22.293Z,75.3
2017-06-13T04:04:21.531Z,75.4
2017-06-13T04:05:20.762Z,75.4
2017-06-13T04:06:19.995Z,75.3
2017-06-13T04:07:19.608Z,75.3
2017-06-13T04:08:18.838Z,75.3
2017-06-13T04:09:17.993Z,75.3
2017-06-13T04:11:16.502Z,75.4
2017-06-13T04:12:15.734Z,75.3
2017-06-13T04:13:15.423Z,75
2017-06-13T04:14:14.037Z,75.1
2017-06-13T04:15:13.356Z,74.8
2017-06-13T04:16:12.586Z,75
2017-06-13T04:17:11.816Z,75.3
2017-06-13T04:18:11.049Z,75.2
2017-06-13T04:19:10.284Z,75.1
2017-06-13T04:20:09.514Z,75.1
2017-06-13T04:21:08.631Z,75
2017-06-13T04:22:07.962Z,75
2017-06-13T04:23:07.415Z,75.3
2017-06-13T04:24:06.298Z,74.8
2017-06-13T04:25:05.913Z,74.9
2017-06-13T04:26:05.027Z,75
2017-06-13T04:27:04.266Z,75.2
2017-06-13T04:28:03.764Z,75.1
2017-06-13T04:29:02.878Z,75.1
2017-06-13T04:30:02.114Z,75
2017-06-13T04:31:01.252Z,74.8
2017-06-13T04:32:00.487Z,74.6
2017-06-13T04:33:00.101Z,74.4
2017-06-13T04:33:59.331Z,74.5
2017-06-13T04:34:58.138Z,74.8
2017-06-13T04:35:57.372Z,74.5
2017-06-13T04:36:57.109Z,74.2
2017-06-13T04:37:56.113Z,74.1
2017-06-13T04:38:55.347Z,74.1
2017-06-13T04:39:54.457Z,73.7
2017-06-13T04:40:54.075Z,73.8
2017-06-13T04:41:53.218Z,74
2017-06-13T04:42:52.332Z,74.2
2017-06-13T04:44:50.843Z,74.2
2017-06-13T04:45:50.081Z,74.1
2017-06-13T04:46:49.314Z,74
2017-06-13T04:47:48.547Z,74
2017-06-13T04:48:47.782Z,74.1
2017-06-13T04:49:46.910Z,73.9
2017-06-13T04:50:46.151Z,73.9
2017-06-13T04:51:45.891Z,73.8
2017-06-13T04:52:45.117Z,73.7
2017-06-13T04:53:44.351Z,73.7
2017-06-13T04:55:42.473Z,73.4
2017-06-13T04:56:41.789Z,73.5
2017-06-13T04:57:41.022Z,73.3
2017-06-13T04:58:40.643Z,73.1
2017-06-13T04:59:39.760Z,73.4
2017-06-13T05:00:39.008Z,73.4
2017-06-13T05:01:38.326Z,73.8
2017-06-13T05:02:37.444Z,73.3
2017-06-13T05:03:36.905Z,72.8
2017-06-13T05:04:36.134Z,73.2
2017-06-13T05:05:35.363Z,73.1
2017-06-13T05:06:34.596Z,72.9
2017-06-13T05:07:33.898Z,72.9
2017-06-13T05:08:33.131Z,72.6
2017-06-13T05:09:32.249Z,72.7
2017-06-13T05:10:31.475Z,73
2017-06-13T05:11:30.786Z,73.1
2017-06-13T05:12:01.904Z,73.1
2017-06-13T05:12:31.993Z,73
2017-06-13T05:13:02.541Z,73
2017-06-13T05:13:33.099Z,72.6
2017-06-13T05:14:03.800Z,72.6
2017-06-13T05:15:27.693Z,72.5
2017-06-13T05:16:26.881Z,72.4
2017-06-13T05:17:26.116Z,72.8
2017-06-13T05:19:25.013Z,73
2017-06-13T05:20:24.253Z,72.8
2017-06-13T05:21:23.485Z,72.7
2017-06-13T05:22:22.727Z,72.5
2017-06-13T05:23:21.970Z,72.7
2017-06-13T05:25:20.477Z,72.3
2017-06-13T05:26:19.589Z,72.1
2017-06-13T05:27:18.818Z,72.2
2017-06-13T05:28:18.051Z,72.4
2017-06-13T05:29:17.666Z,72.3
2017-06-13T05:30:16.784Z,72.4
2017-06-13T05:31:15.902Z,72.5
2017-06-13T05:32:15.021Z,72.5
2017-06-13T05:33:14.253Z,72.6
2017-06-13T05:34:13.991Z,72.8
2017-06-13T05:35:13.225Z,72.8
2017-06-13T05:36:12.455Z,72.9
2017-06-13T05:37:11.681Z,73.3
2017-06-13T05:38:10.914Z,73
2017-06-13T05:39:10.148Z,73.1
2017-06-13T05:40:09.399Z,73
2017-06-13T05:41:08.640Z,73.3
2017-06-13T05:42:07.635Z,73
2017-06-13T05:43:07.837Z,72.9
2017-06-13T05:44:06.566Z,72.7
2017-06-13T05:45:05.686Z,72.8
2017-06-13T05:46:04.803Z,72.9
2017-06-13T05:47:05.009Z,72.7
2017-06-13T05:48:03.309Z,72.8
2017-06-13T05:49:02.931Z,72.7
2017-06-13T05:50:01.934Z,72.6
2017-06-13T05:51:01.440Z,72.2
2017-06-13T05:52:00.748Z,72.3
2017-06-13T05:52:59.977Z,72.3
2017-06-13T05:53:59.212Z,72.1
2017-06-13T05:54:29.753Z,72.1
2017-06-13T05:55:00.055Z,72.1
2017-06-13T05:55:57.785Z,72.3
2017-06-13T05:56:57.019Z,72
2017-06-13T05:57:56.257Z,72.1
2017-06-13T05:58:56.069Z,72.1
2017-06-13T05:59:54.795Z,71.8
2017-06-13T06:00:53.974Z,71.7
2017-06-13T06:01:52.965Z,72.1
2017-06-13T06:02:52.280Z,72.1
2017-06-13T06:03:51.514Z,72
2017-06-13T06:04:51.716Z,71.9
2017-06-13T06:05:50.441Z,71.9
2017-06-13T06:06:49.477Z,72.1
2017-06-13T06:07:48.711Z,71.7
2017-06-13T06:08:48.522Z,71.8
2017-06-13T06:09:47.320Z,72.1
2017-06-13T06:10:46.559Z,72.1
2017-06-13T06:12:45.218Z,71.8
2017-06-13T06:13:44.451Z,71.8
2017-06-13T06:14:43.685Z,71.7
2017-06-13T06:15:42.923Z,71.6
2017-06-13T06:16:42.035Z,71.6
2017-06-13T06:17:41.770Z,72
2017-06-13T06:18:40.897Z,71.6
2017-06-13T06:19:40.011Z,72
2017-06-13T06:21:38.712Z,71.8
2017-06-13T06:22:37.948Z,71.8
2017-06-13T06:23:37.189Z,71.9
2017-06-13T06:24:36.428Z,71.9
2017-06-13T06:25:35.842Z,72
2017-06-13T06:26:35.071Z,71.8
2017-06-13T06:27:34.376Z,71.7
2017-06-13T06:28:33.495Z,71.6
2017-06-13T06:29:33.110Z,71.6
2017-06-13T06:30:32.313Z,71.6
2017-06-13T06:32:30.938Z,71.3
2017-06-13T06:33:29.625Z,71.3
2017-06-13T06:34:29.361Z,71.3
2017-06-13T06:35:28.744Z,71.3
2017-06-13T06:36:27.862Z,71.1
2017-06-13T06:37:27.094Z,71.2
2017-06-13T06:38:26.330Z,71.4
2017-06-13T06:39:25.633Z,71.4
2017-06-13T06:40:24.751Z,71.3
2017-06-13T06:41:23.980Z,71.4
2017-06-13T06:42:23.277Z,71.2
2017-06-13T06:43:22.898Z,70.6
2017-06-13T06:44:22.126Z,70.8
2017-06-13T06:45:21.330Z,70.7
2017-06-13T06:46:20.569Z,70.6
2017-06-13T06:47:19.809Z,70.9
2017-06-13T06:48:18.927Z,70.9
2017-06-13T06:49:18.551Z,70.8
2017-06-13T06:50:17.669Z,70.2
2017-06-13T06:51:16.911Z,70.4
2017-06-13T06:52:16.152Z,70.3
2017-06-13T06:53:15.419Z,70.1
2017-06-13T06:54:14.657Z,69.9
2017-06-13T06:55:14.282Z,69.8
2017-06-13T06:56:13.545Z,69.5
2017-06-13T06:57:12.661Z,69.7
2017-06-13T06:59:10.929Z,69.2
2017-06-13T07:00:10.717Z,69.3
2017-06-13T07:01:09.837Z,69.5
2017-06-13T07:02:09.645Z,69.4
2017-06-13T07:03:08.330Z,70
2017-06-13T07:04:07.728Z,69.6
2017-06-13T07:05:06.964Z,69.7
2017-06-13T07:06:06.209Z,69.6
2017-06-13T07:07:05.383Z,69.7
2017-06-13T07:08:04.617Z,70.4
2017-06-13T07:10:03.089Z,70.3
2017-06-13T07:11:02.838Z,69.9
2017-06-13T07:12:02.081Z,69.6
2017-06-13T07:13:01.080Z,70.1
2017-06-13T07:14:00.311Z,70.5
2017-06-13T07:14:59.618Z,69.7
2017-06-13T07:15:59.353Z,69.9
2017-06-13T07:16:58.473Z,70.4
2017-06-13T07:17:57.710Z,70.2
2017-06-13T07:18:56.914Z,70.5
2017-06-13T07:19:56.218Z,70.3
2017-06-13T07:20:55.453Z,69.9
2017-06-13T07:21:55.078Z,70.4
2017-06-13T07:22:54.238Z,70
2017-06-13T07:23:53.553Z,69.7
2017-06-13T07:24:52.798Z,69.8
2017-06-13T07:25:52.024Z,70
2017-06-13T07:26:51.255Z,70
2017-06-13T07:27:50.495Z,69.8
2017-06-13T07:28:49.996Z,69.5
2017-06-13T07:30:48.619Z,69.3
2017-06-13T07:31:47.854Z,69.3
2017-06-13T07:32:47.081Z,69
2017-06-13T07:33:46.312Z,69.2
2017-06-13T07:34:45.804Z,69.2
2017-06-13T07:35:44.914Z,69
2017-06-13T07:36:44.027Z,69.1
2017-06-13T07:37:43.272Z,69.3
2017-06-13T07:38:42.962Z,69.1
2017-06-13T07:39:42.199Z,68.9
2017-06-13T07:40:41.516Z,69
2017-06-13T07:41:40.633Z,69.4
2017-06-13T07:42:39.869Z,69.1
2017-06-13T07:43:39.099Z,68.8
2017-06-13T07:44:38.334Z,68.1
2017-06-13T07:45:38.079Z,68.2
2017-06-13T07:46:37.312Z,67.9
2017-06-13T07:47:36.543Z,67.8
2017-06-13T07:48:35.850Z,68.5
2017-06-13T07:49:35.089Z,67.5
2017-06-13T07:50:34.207Z,67.3
2017-06-13T07:51:33.444Z,66.9
2017-06-13T07:52:33.061Z,67.1
2017-06-13T07:53:32.170Z,67.5
2017-06-13T07:54:31.402Z,67.3
2017-06-13T07:55:30.642Z,67.5
2017-06-13T07:56:30.382Z,67.7
2017-06-13T07:57:29.506Z,67.6
2017-06-13T07:58:28.629Z,67.2
2017-06-13T07:59:28.006Z,67
2017-06-13T08:00:27.242Z,67.4
2017-06-13T08:01:26.468Z,67.5
2017-06-13T08:02:25.852Z,67.9
2017-06-13T08:03:25.094Z,68.2
2017-06-13T08:04:24.403Z,68.1
2017-06-13T08:05:24.142Z,67.7
2017-06-13T08:06:23.378Z,67.4
2017-06-13T08:07:22.617Z,67.3
2017-06-13T08:08:21.854Z,67.1
2017-06-13T08:09:21.086Z,66.8
2017-06-13T08:10:20.200Z,67.1
2017-06-13T08:11:19.703Z,66.8
2017-06-13T08:12:18.938Z,66.7
2017-06-13T08:13:18.444Z,67
2017-06-13T08:14:17.556Z,66.9
2017-06-13T08:15:16.794Z,66.6
2017-06-13T08:16:16.535Z,66.3
2017-06-13T08:17:15.764Z,66.2
2017-06-13T08:18:14.643Z,66.3
2017-06-13T08:19:14.953Z,66.4
2017-06-13T08:20:13.680Z,66.4
2017-06-13T08:21:12.911Z,66.1
2017-06-13T08:22:12.148Z,66.1
2017-06-13T08:23:11.957Z,65.2
2017-06-13T08:24:10.573Z,65
2017-06-13T08:25:10.309Z,65
2017-06-13T08:26:09.544Z,64.6
2017-06-13T08:27:08.791Z,64.2
2017-06-13T08:28:07.902Z,64
2017-06-13T08:28:38.332Z,64
2017-06-13T08:29:08.883Z,63.9
2017-06-13T08:29:39.579Z,63.9
2017-06-13T08:30:10.010Z,63.9
2017-06-13T08:30:40.511Z,63.9
2017-06-13T08:32:05.416Z,62.9
2017-06-13T08:33:04.545Z,63
2017-06-13T08:34:03.781Z,63.7
2017-06-13T08:35:03.399Z,63.3
2017-06-13T08:36:02.630Z,63.6
2017-06-13T08:37:01.866Z,64
2017-06-13T08:38:01.098Z,64.3
2017-06-13T08:39:00.713Z,64.7
2017-06-13T08:39:59.949Z,64.8
2017-06-13T08:40:59.184Z,64.3
2017-06-13T08:41:58.519Z,64.8
2017-06-13T08:42:57.642Z,65.2
2017-06-13T08:43:56.876Z,65.5
2017-06-13T08:44:57.193Z,65.6
2017-06-13T08:45:55.926Z,66.1
2017-06-13T08:46:55.160Z,65.7
2017-06-13T08:47:54.279Z,65.2
2017-06-13T08:48:53.666Z,65.1
2017-06-13T08:50:52.289Z,64.5
2017-06-13T08:51:51.489Z,64.9
2017-06-13T08:52:50.722Z,64.8
2017-06-13T08:53:49.954Z,64.4
2017-06-13T08:54:49.687Z,64.2
2017-06-13T08:55:48.802Z,64.4
2017-06-13T08:56:47.974Z,64.5
2017-06-13T08:57:47.209Z,64.5
2017-06-13T08:58:46.957Z,64.3
2017-06-13T08:59:46.207Z,64.4
2017-06-13T09:00:45.323Z,64.7
2017-06-13T09:01:44.560Z,64
2017-06-13T09:02:43.794Z,64
2017-06-13T09:03:43.368Z,64.5
2017-06-13T09:04:42.868Z,64.5
2017-06-13T09:05:42.202Z,64.5
2017-06-13T09:06:41.437Z,64.7
2017-06-13T09:07:40.675Z,64.8
2017-06-13T09:08:39.985Z,64.7
2017-06-13T09:09:39.221Z,65
2017-06-13T09:10:38.455Z,65.3
2017-06-13T09:11:37.696Z,65.3
2017-06-13T09:12:37.431Z,65.5
2017-06-13T09:13:36.663Z,65.8
2017-06-13T09:14:35.774Z,65.8
2017-06-13T09:15:35.533Z,66
2017-06-13T09:16:34.265Z,65.9
2017-06-13T09:17:34.001Z,66
2017-06-13T09:18:33.234Z,65.9
2017-06-13T09:19:32.228Z,65.8
2017-06-13T09:20:31.345Z,66
2017-06-13T09:21:31.079Z,66.4
2017-06-13T09:22:01.383Z,66.4
2017-06-13T09:22:31.926Z,66.4
2017-06-13T09:23:02.473Z,66.4
2017-06-13T09:23:32.945Z,66.6
2017-06-13T09:24:29.168Z,66.5
2017-06-13T09:25:28.289Z,66.7
2017-06-13T09:27:26.913Z,66.5
2017-06-13T09:28:26.147Z,65.9
2017-06-13T09:29:25.414Z,66
2017-06-13T09:30:24.797Z,65.9
2017-06-13T09:31:24.045Z,65.9
2017-06-13T09:32:23.279Z,65.9
2017-06-13T09:33:22.512Z,65.9
2017-06-13T09:34:22.133Z,66
2017-06-13T09:35:21.248Z,66.3
2017-06-13T09:36:20.322Z,66.3
2017-06-13T09:37:20.090Z,66.3
2017-06-13T09:38:19.213Z,66.5
2017-06-13T09:39:18.436Z,66.6
2017-06-13T09:40:18.173Z,66.5
2017-06-13T09:41:17.167Z,66.7
2017-06-13T09:42:16.368Z,66.4
2017-06-13T09:43:16.054Z,66.4
2017-06-13T09:44:15.183Z,66.8
2017-06-13T09:45:14.300Z,66.4
2017-06-13T09:46:14.034Z,66.5
2017-06-13T09:47:13.272Z,66.4
2017-06-13T09:48:12.504Z,66.4
2017-06-13T09:49:11.742Z,66.3
2017-06-13T09:50:10.983Z,65.5
2017-06-13T09:51:10.606Z,65.2
2017-06-13T09:52:09.724Z,65.7
2017-06-13T09:53:08.835Z,65.2
2017-06-13T09:54:08.336Z,65.6
2017-06-13T09:55:07.461Z,65.9
2017-06-13T09:56:06.699Z,65.8
2017-06-13T09:57:06.342Z,66
2017-06-13T09:58:05.486Z,65.9
2017-06-13T09:59:05.388Z,65.6
2017-06-13T10:00:04.118Z,65.6
2017-06-13T10:01:03.508Z,64.9
2017-06-13T10:02:02.656Z,64.4
2017-06-13T10:03:02.156Z,64.1
2017-06-13T10:04:01.274Z,63.3
2017-06-13T10:05:00.890Z,62.8
2017-06-13T10:06:00.125Z,62.9
2017-06-13T10:06:59.360Z,63.6
2017-06-13T10:07:58.594Z,63.4
2017-06-13T10:08:58.213Z,63.2
2017-06-13T10:09:57.212Z,63.2
2017-06-13T10:10:56.449Z,63.1
2017-06-13T10:11:55.956Z,63.5
2017-06-13T10:12:55.067Z,63.5
2017-06-13T10:13:54.799Z,63.1
2017-06-13T10:14:53.911Z,62.8
2017-06-13T10:15:53.223Z,62.7
2017-06-13T10:16:52.841Z,63.1
2017-06-13T10:18:51.464Z,62.8
2017-06-13T10:19:50.574Z,63
2017-06-13T10:20:49.696Z,63.1
2017-06-13T10:21:49.266Z,62.9
2017-06-13T10:22:48.407Z,62.5
2017-06-13T10:23:47.718Z,62.3
2017-06-13T10:24:46.977Z,62.4
2017-06-13T10:25:46.737Z,63.3
2017-06-13T10:26:45.968Z,62.9
2017-06-13T10:27:45.202Z,62.8
2017-06-13T10:28:15.631Z,62.8
2017-06-13T10:28:46.061Z,62.8
2017-06-13T10:29:16.599Z,62.8
2017-06-13T10:29:46.904Z,63
2017-06-13T10:30:17.470Z,63
2017-06-13T10:31:42.258Z,63.4
2017-06-13T10:32:41.875Z,63.8
2017-06-13T10:33:41.120Z,64
2017-06-13T10:34:40.241Z,63.8
2017-06-13T10:35:39.982Z,63.3
2017-06-13T10:36:39.217Z,63.3
2017-06-13T10:37:38.487Z,63.4
2017-06-13T10:38:37.722Z,62.8
2017-06-13T10:39:36.839Z,63.1
2017-06-13T10:40:36.340Z,63.1
2017-06-13T10:41:35.575Z,62.8
2017-06-13T10:42:34.827Z,62.7
2017-06-13T10:43:34.443Z,62.8
2017-06-13T10:44:33.675Z,62.8
2017-06-13T10:45:32.915Z,62.6
2017-06-13T10:46:32.031Z,63
2017-06-13T10:47:31.775Z,62.4
2017-06-13T10:48:31.080Z,62.1
2017-06-13T10:49:30.202Z,62.6
2017-06-13T10:50:29.777Z,62.7
2017-06-13T10:51:28.776Z,62.3
2017-06-13T10:52:28.280Z,62.3
2017-06-13T10:53:27.406Z,62.7
2017-06-13T10:54:26.944Z,62.7
2017-06-13T10:55:26.183Z,62.3
2017-06-13T10:56:25.913Z,62.7
2017-06-13T10:57:25.034Z,62.1
2017-06-13T10:58:24.341Z,62.3
2017-06-13T10:59:23.334Z,62.2
2017-06-13T11:00:23.067Z,60.9
2017-06-13T11:02:21.683Z,59.1
2017-06-13T11:03:20.792Z,59.2
2017-06-13T11:04:20.022Z,58.7
2017-06-13T11:05:19.764Z,58.4
2017-06-13T11:06:18.873Z,58.4
2017-06-13T11:07:18.113Z,58.4
2017-06-13T11:08:17.346Z,58.2
2017-06-13T11:09:17.091Z,58.3
2017-06-13T11:09:47.635Z,58.3
2017-06-13T11:10:18.189Z,58.6
2017-06-13T11:10:48.619Z,58.6
2017-06-13T11:13:14.419Z,58.5
2017-06-13T11:14:13.530Z,58.3
2017-06-13T11:15:12.768Z,58.3
2017-06-13T11:16:12.382Z,58.2
2017-06-13T11:17:11.612Z,58.3
2017-06-13T11:18:10.841Z,58.9
2017-06-13T11:19:09.952Z,59.2
2017-06-13T11:20:09.775Z,58.2
2017-06-13T11:21:08.886Z,58.5
2017-06-13T11:22:08.263Z,58.7
2017-06-13T11:23:07.265Z,58.9
2017-06-13T11:24:06.728Z,58.9
2017-06-13T11:25:06.227Z,59.2
2017-06-13T11:26:05.468Z,59.5
2017-06-13T11:27:05.091Z,59
2017-06-13T11:28:04.328Z,59.5
2017-06-13T11:29:03.443Z,60
2017-06-13T11:30:02.674Z,59.8
2017-06-13T11:31:02.063Z,59.6
2017-06-13T11:32:01.797Z,59.6
2017-06-13T11:33:01.031Z,59.9
2017-06-13T11:34:00.347Z,60.4
2017-06-13T11:34:59.473Z,60.2
2017-06-13T11:35:59.096Z,60.2
2017-06-13T11:36:58.275Z,60.2
2017-06-13T11:37:57.505Z,60.1
2017-06-13T11:38:56.732Z,60
2017-06-13T11:39:56.349Z,59.2
2017-06-13T11:40:55.582Z,59
2017-06-13T11:41:54.697Z,58.7
2017-06-13T11:42:54.432Z,58.2
2017-06-13T11:43:53.669Z,57.6
2017-06-13T11:45:52.880Z,57.9
2017-06-13T11:46:51.498Z,57.7
2017-06-13T11:47:50.616Z,58.2
2017-06-13T11:48:50.357Z,58.5
2017-06-13T11:49:49.470Z,58.8
2017-06-13T11:50:48.584Z,58.3
2017-06-13T11:51:48.216Z,58.2
2017-06-13T11:52:47.517Z,58.1
2017-06-13T11:53:46.640Z,58.1
2017-06-13T11:54:46.375Z,57.9
2017-06-13T11:55:45.882Z,58.1
2017-06-13T11:56:44.881Z,58.2
2017-06-13T11:57:44.121Z,58.4
2017-06-13T11:58:43.861Z,58.7
2017-06-13T11:59:43.096Z,58.5
2017-06-13T12:00:42.217Z,58.5
2017-06-13T12:01:41.830Z,58.6
2017-06-13T12:02:41.068Z,58.7
2017-06-13T12:03:40.134Z,59.7
2017-06-13T12:04:39.517Z,59
2017-06-13T12:05:39.020Z,58.6
2017-06-13T12:06:38.260Z,58.6
2017-06-13T12:07:37.501Z,58.9
2017-06-13T12:09:36.619Z,58.8
2017-06-13T12:10:35.730Z,58.3
2017-06-13T12:11:34.962Z,58.9
2017-06-13T12:12:34.703Z,59.5
2017-06-13T12:13:33.931Z,59.1
2017-06-13T12:14:33.039Z,59
2017-06-13T12:15:32.347Z,58.7
2017-06-13T12:16:32.086Z,58.7
2017-06-13T12:17:31.321Z,58.3
2017-06-13T12:18:30.558Z,58.5
2017-06-13T12:19:29.793Z,58.4
2017-06-13T12:20:29.431Z,58.3
2017-06-13T12:21:28.425Z,57.4
2017-06-13T12:22:28.040Z,57.4
2017-06-13T12:23:27.274Z,57.7
2017-06-13T12:24:26.505Z,58.2
2017-06-13T12:25:26.121Z,58
2017-06-13T12:26:25.353Z,58.4
2017-06-13T12:27:24.590Z,58
2017-06-13T12:28:23.825Z,58.3
2017-06-13T12:29:23.334Z,58.9
2017-06-13T12:30:22.840Z,59.1
2017-06-13T12:31:21.958Z,59.2
2017-06-13T12:32:21.649Z,59.5
2017-06-13T12:33:20.882Z,59.9
2017-06-13T12:34:19.879Z,59.8
2017-06-13T12:35:19.267Z,59.9
2017-06-13T12:36:18.653Z,60.1
2017-06-13T12:37:18.033Z,59.7
2017-06-13T12:38:17.652Z,59.7
2017-06-13T12:39:16.887Z,59.6
2017-06-13T12:40:16.001Z,59.1
2017-06-13T12:41:15.745Z,59
2017-06-13T12:42:14.798Z,58.8
2017-06-13T12:43:14.103Z,58.9
2017-06-13T12:44:13.339Z,59.3
2017-06-13T12:45:13.089Z,58.9
2017-06-13T12:46:12.206Z,58.6
2017-06-13T12:47:11.472Z,58.5
2017-06-13T12:48:10.701Z,58.9
2017-06-13T12:49:10.437Z,58.8
2017-06-13T12:50:10.253Z,59.2
2017-06-13T12:51:08.873Z,58.9
2017-06-13T12:52:08.502Z,58.8
2017-06-13T12:53:07.614Z,59.2
2017-06-13T12:54:06.850Z,59.1
2017-06-13T12:55:06.590Z,59.1
2017-06-13T12:56:05.718Z,59.2
2017-06-13T12:57:04.719Z,58.9
2017-06-13T12:58:04.606Z,59.4
2017-06-13T12:59:03.843Z,58.6
2017-06-13T13:00:02.960Z,58.5
2017-06-13T13:02:02.047Z,58.4
2017-06-13T13:03:01.357Z,58.2
2017-06-13T13:04:00.604Z,57.7
2017-06-13T13:04:59.722Z,57.4
2017-06-13T13:05:59.338Z,57.4
2017-06-13T13:06:58.450Z,57.2
2017-06-13T13:07:58.066Z,56.8
2017-06-13T13:08:57.308Z,57
2017-06-13T13:09:56.543Z,57.6
2017-06-13T13:10:55.778Z,57.3
2017-06-13T13:11:55.517Z,57.2
2017-06-13T13:12:54.751Z,57.3
2017-06-13T13:14:53.376Z,56.4
2017-06-13T13:15:52.687Z,56.7
2017-06-13T13:16:51.798Z,56.8
2017-06-13T13:17:51.544Z,57.1
2017-06-13T13:18:50.606Z,56.7
2017-06-13T13:19:50.217Z,56.8
2017-06-13T13:20:49.535Z,56.7
2017-06-13T13:21:48.768Z,56.3
2017-06-13T13:22:48.400Z,56.4
2017-06-13T13:23:47.639Z,56.6
2017-06-13T13:24:46.873Z,56.8
2017-06-13T13:25:46.124Z,56.9
2017-06-13T13:26:45.890Z,57.3
2017-06-13T13:27:45.009Z,57.2
2017-06-13T13:28:44.619Z,57.2
2017-06-13T13:29:43.859Z,58.1
2017-06-13T13:30:42.976Z,57.8
2017-06-13T13:31:42.708Z,57.9